createdAt,value
2018-05-21T00:01:26.312Z,10.23
2018-05-21T00:03:53.860Z,11.13
2018-05-21T00:06:21.420Z,10.27
2018-05-21T00:08:48.970Z,10.67
2018-05-21T00:11:17.403Z,10.97
2018-05-21T00:13:44.936Z,10.23
2018-05-21T00:16:12.497Z,11.63
2018-05-21T00:18:40.045Z,12.30
2018-05-21T00:21:07.608Z,11.27
2018-05-21T00:23:35.143Z,12.87
2018-05-21T00:26:02.704Z,13.03
2018-05-21T00:28:30.232Z,13.20
2018-05-21T00:30:58.556Z,13.20
2018-05-21T00:33:26.101Z,13.27
2018-05-21T00:35:53.661Z,11.90
2018-05-21T00:38:21.213Z,11.43
2018-05-21T00:40:48.760Z,13.10
2018-05-21T00:43:16.311Z,12.43
2018-05-21T00:45:44.516Z,12.17
2018-05-21T00:48:12.041Z,12.00
2018-05-21T00:50:39.568Z,13.23
2018-05-21T00:53:07.112Z,12.73
2018-05-21T00:55:38.201Z,12.77
2018-05-21T00:58:05.757Z,13.00
2018-05-21T01:00:34.067Z,13.33
2018-05-21T01:03:01.620Z,13.50
2018-05-21T01:05:29.179Z,14.00
2018-05-21T01:07:56.739Z,12.90
2018-05-21T01:10:24.285Z,12.77
2018-05-21T01:12:51.829Z,12.70
2018-05-21T01:15:19.368Z,13.43
2018-05-21T01:17:47.700Z,13.07
2018-05-21T01:20:15.219Z,13.50
2018-05-21T01:22:43.546Z,14.20
2018-05-21T01:25:11.085Z,15.00
2018-05-21T01:27:38.642Z,14.63
2018-05-21T01:30:06.176Z,14.67
2018-05-21T01:32:33.757Z,15.80
2018-05-21T01:35:01.317Z,17.37
2018-05-21T01:37:28.887Z,17.47
2018-05-21T01:39:56.434Z,19.13
2018-05-21T01:42:23.976Z,17.53
2018-05-21T01:44:51.559Z,18.30
2018-05-21T01:47:19.095Z,16.73
2018-05-21T01:49:46.637Z,16.97
2018-05-21T01:52:14.944Z,18.90
2018-05-21T01:54:42.492Z,17.00
2018-05-21T01:57:10.033Z,18.60
2018-05-21T01:59:38.360Z,20.03
2018-05-21T02:02:05.892Z,18.00
2018-05-21T02:04:33.432Z,18.83
2018-05-21T02:07:00.980Z,21.07
2018-05-21T02:09:29.280Z,21.60
2018-05-21T02:11:56.822Z,21.70
2018-05-21T02:14:24.412Z,20.80
2018-05-21T02:16:51.948Z,19.63
2018-05-21T02:19:19.501Z,18.87
2018-05-21T02:21:47.037Z,19.40
2018-05-21T02:24:14.575Z,22.30
2018-05-21T02:26:42.629Z,20.40
2018-05-21T02:29:10.177Z,20.83
2018-05-21T02:31:37.713Z,21.77
2018-05-21T02:34:05.256Z,22.93
2018-05-21T02:36:33.161Z,22.17
2018-05-21T02:39:00.716Z,18.27
2018-05-21T02:41:28.245Z,18.67
2018-05-21T02:43:56.605Z,19.53
2018-05-21T02:46:24.124Z,17.27
2018-05-21T02:48:51.673Z,17.27
2018-05-21T02:51:19.222Z,16.70
2018-05-21T02:53:46.762Z,17.17
2018-05-21T02:56:14.300Z,17.33
2018-05-21T02:58:42.625Z,18.20
2018-05-21T03:01:11.446Z,20.43
2018-05-21T03:03:39.010Z,35.07
2018-05-21T03:06:06.531Z,19.83
2018-05-21T03:08:34.080Z,19.10
2018-05-21T03:11:01.668Z,21.13
2018-05-21T03:13:29.204Z,25.13
2018-05-21T03:15:56.768Z,21.07
2018-05-21T03:18:24.317Z,20.60
2018-05-21T03:20:53.345Z,22.03
2018-05-21T03:23:20.875Z,21.40
2018-05-21T03:25:48.419Z,19.07
2018-05-21T03:28:15.952Z,17.70
2018-05-21T03:30:44.769Z,16.80
2018-05-21T03:33:12.300Z,18.10
2018-05-21T03:35:39.868Z,17.20
2018-05-21T03:38:07.401Z,17.40
2018-05-21T03:40:35.347Z,16.00
2018-05-21T03:43:02.884Z,19.57
2018-05-21T03:45:30.444Z,16.63
2018-05-21T03:47:57.984Z,18.03
2018-05-21T03:50:25.534Z,18.93
2018-05-21T03:52:53.051Z,18.53
2018-05-21T03:55:20.617Z,19.90
2018-05-21T03:57:48.149Z,20.43
2018-05-21T04:00:28.141Z,20.83
2018-05-21T04:05:59.779Z,21.03
2018-05-21T04:08:27.358Z,19.57
2018-05-21T04:10:54.842Z,23.90
2018-05-21T04:13:22.384Z,27.87
2018-05-21T04:15:49.932Z,30.97
2018-05-21T04:18:17.466Z,28.80
2018-05-21T04:20:45.009Z,24.07
2018-05-21T04:23:12.536Z,22.70
2018-05-21T04:25:40.170Z,20.93
2018-05-21T04:28:07.623Z,19.67
2018-05-21T04:30:35.197Z,18.13
2018-05-21T04:33:03.562Z,17.87
2018-05-21T04:35:31.111Z,18.27
2018-05-21T04:37:58.657Z,18.10
2018-05-21T04:40:26.189Z,20.70
2018-05-21T04:42:53.722Z,17.77
2018-05-21T04:45:21.260Z,20.70
2018-05-21T04:47:49.567Z,19.80
2018-05-21T04:50:17.094Z,19.80
2018-05-21T04:52:44.647Z,21.13
2018-05-21T04:55:12.173Z,26.53
2018-05-21T04:57:40.494Z,26.10
2018-05-21T05:00:08.832Z,23.20
2018-05-21T05:02:37.628Z,14.10
2018-05-21T05:05:05.208Z,12.00
2018-05-21T05:07:32.798Z,12.10
2018-05-21T05:10:00.355Z,9.83
2018-05-21T05:12:28.682Z,10.13
2018-05-21T05:14:56.226Z,9.03
2018-05-21T05:17:24.538Z,9.47
2018-05-21T05:19:52.891Z,9.60
2018-05-21T05:22:20.440Z,9.07
2018-05-21T05:24:48.006Z,8.13
2018-05-21T05:27:16.398Z,8.57
2018-05-21T05:29:43.932Z,7.60
2018-05-21T05:32:11.492Z,7.13
2018-05-21T05:34:39.796Z,6.87
2018-05-21T05:37:07.345Z,6.47
2018-05-21T05:39:34.900Z,6.30
2018-05-21T05:42:02.591Z,5.93
2018-05-21T05:44:30.121Z,6.30
2018-05-21T05:46:58.422Z,12.30
2018-05-21T05:49:26.735Z,5.77
2018-05-21T05:51:54.278Z,5.10
2018-05-21T05:54:21.858Z,5.33
2018-05-21T05:56:49.401Z,5.33
2018-05-21T05:59:16.934Z,5.53
2018-05-21T06:01:45.197Z,4.80
2018-05-21T06:04:12.744Z,5.33
2018-05-21T06:06:41.032Z,4.37
2018-05-21T06:09:08.569Z,4.27
2018-05-21T06:11:36.137Z,4.20
2018-05-21T06:14:03.718Z,4.23
2018-05-21T06:16:31.256Z,4.63
2018-05-21T06:18:58.799Z,3.70
2018-05-21T06:21:26.331Z,4.50
2018-05-21T06:23:53.871Z,3.53
2018-05-21T06:26:21.444Z,3.83
2018-05-21T06:28:48.977Z,3.33
2018-05-21T06:31:16.516Z,3.37
2018-05-21T06:33:44.052Z,3.73
2018-05-21T06:36:11.580Z,3.30
2018-05-21T06:38:39.117Z,3.63
2018-05-21T06:41:06.781Z,2.97
2018-05-21T06:43:35.048Z,3.40
2018-05-21T06:46:02.606Z,3.10
2018-05-21T06:48:30.907Z,3.20
2018-05-21T06:50:59.216Z,3.10
2018-05-21T06:53:27.518Z,2.97
2018-05-21T06:55:55.829Z,3.27
2018-05-21T06:58:24.124Z,3.20
2018-05-21T07:00:51.665Z,3.13
2018-05-21T07:03:19.192Z,3.23
2018-05-21T07:05:47.510Z,3.23
2018-05-21T07:08:15.040Z,2.83
2018-05-21T07:10:42.583Z,2.90
2018-05-21T07:13:10.877Z,2.80
2018-05-21T07:15:38.425Z,3.00
2018-05-21T07:18:06.055Z,3.10
2018-05-21T07:20:33.639Z,2.90
2018-05-21T07:23:01.183Z,2.60
2018-05-21T07:25:28.734Z,2.97
2018-05-21T07:27:56.393Z,3.20
2018-05-21T07:30:23.920Z,2.83
2018-05-21T07:32:51.479Z,2.77
2018-05-21T07:35:19.005Z,2.90
2018-05-21T07:37:46.544Z,3.00
2018-05-21T07:40:14.096Z,2.70
2018-05-21T07:42:42.395Z,3.10
2018-05-21T07:45:10.703Z,3.03
2018-05-21T07:47:38.239Z,3.00
2018-05-21T07:50:05.817Z,2.93
2018-05-21T07:52:33.415Z,3.17
2018-05-21T07:55:01.794Z,3.30
2018-05-21T07:57:29.383Z,2.90
2018-05-21T07:59:56.908Z,3.10
2018-05-21T08:02:24.445Z,3.13
2018-05-21T08:04:52.002Z,3.23
2018-05-21T08:07:19.562Z,3.00
2018-05-21T08:09:47.865Z,3.10
2018-05-21T08:12:16.169Z,3.03
2018-05-21T08:14:44.494Z,3.20
2018-05-21T08:17:12.771Z,3.50
2018-05-21T08:19:40.290Z,3.33
2018-05-21T08:22:07.902Z,3.23
2018-05-21T08:24:35.417Z,3.50
2018-05-21T08:27:03.745Z,3.40
2018-05-21T08:29:31.276Z,3.13
2018-05-21T08:31:58.825Z,3.00
2018-05-21T08:34:26.357Z,3.40
2018-05-21T08:36:53.906Z,3.73
2018-05-21T08:39:21.446Z,3.13
2018-05-21T08:41:49.768Z,3.57
2018-05-21T08:44:17.314Z,3.67
2018-05-21T08:46:44.861Z,3.03
2018-05-21T08:49:12.401Z,3.87
2018-05-21T08:51:40.704Z,3.73
2018-05-21T08:54:09.013Z,3.50
2018-05-21T08:56:37.384Z,3.40
2018-05-21T08:59:04.877Z,3.90
2018-05-21T09:01:32.416Z,3.50
2018-05-21T09:03:59.956Z,3.73
2018-05-21T09:06:28.265Z,3.73
2018-05-21T09:08:55.815Z,3.73
2018-05-21T09:11:23.350Z,3.37
2018-05-21T09:13:50.888Z,3.77
2018-05-21T09:16:18.457Z,3.43
2018-05-21T09:18:45.962Z,3.57
2018-05-21T09:21:13.507Z,3.70
2018-05-21T09:23:41.046Z,3.30
2018-05-21T09:26:09.456Z,3.67
2018-05-21T09:28:41.429Z,3.80
2018-05-21T09:31:08.948Z,3.83
2018-05-21T09:33:36.504Z,4.20
2018-05-21T09:36:04.460Z,4.10
2018-05-21T09:38:32.012Z,4.17
2018-05-21T09:40:59.539Z,4.30
2018-05-21T09:43:27.086Z,3.97
2018-05-21T09:45:54.613Z,3.90
2018-05-21T09:48:22.152Z,4.47
2018-05-21T09:50:49.714Z,4.00
2018-05-21T09:53:17.248Z,4.00
2018-05-21T09:55:45.672Z,3.67
2018-05-21T09:58:13.213Z,4.60
2018-05-21T10:00:40.748Z,4.47
2018-05-21T10:03:08.299Z,4.10
2018-05-21T10:05:35.865Z,3.78
2018-05-21T10:08:03.487Z,4.12
2018-05-21T10:10:31.030Z,3.80
2018-05-21T10:12:58.588Z,3.95
2018-05-21T10:15:26.890Z,4.23
2018-05-21T10:17:54.465Z,4.68
2018-05-21T10:20:22.811Z,4.28
2018-05-21T10:22:50.334Z,3.92
2018-05-21T10:25:17.895Z,3.83
2018-05-21T10:27:45.437Z,3.40
2018-05-21T10:30:12.977Z,8.33
2018-05-21T10:32:40.516Z,4.30
2018-05-21T10:35:08.091Z,3.87
2018-05-21T10:37:35.653Z,3.50
2018-05-21T10:40:03.214Z,4.23
2018-05-21T10:42:30.750Z,4.17
2018-05-21T10:44:58.314Z,3.87
2018-05-21T10:47:26.600Z,4.10
2018-05-21T10:49:54.141Z,3.80
2018-05-21T10:52:21.700Z,4.50
2018-05-21T10:54:49.248Z,4.20
2018-05-21T10:57:16.792Z,3.77
2018-05-21T10:59:44.330Z,3.87
2018-05-21T11:02:12.653Z,3.30
2018-05-21T11:04:40.248Z,3.90
2018-05-21T11:07:07.732Z,4.17
2018-05-21T11:09:35.287Z,3.90
2018-05-21T11:12:03.723Z,3.70
2018-05-21T11:14:31.207Z,3.93
2018-05-21T11:16:58.751Z,4.27
2018-05-21T11:19:26.289Z,4.00
2018-05-21T11:21:55.036Z,4.30
2018-05-21T11:24:22.586Z,4.27
2018-05-21T11:26:50.124Z,3.80
2018-05-21T11:29:18.428Z,3.70
2018-05-21T11:31:46.725Z,3.80
2018-05-21T11:34:15.029Z,3.57
2018-05-21T11:36:43.345Z,3.77
2018-05-21T11:39:10.917Z,3.40
2018-05-21T11:41:39.212Z,3.77
2018-05-21T11:44:07.532Z,3.60
2018-05-21T11:46:35.083Z,3.20
2018-05-21T11:49:02.637Z,3.57
2018-05-21T11:51:30.166Z,3.83
2018-05-21T11:53:58.482Z,3.60
2018-05-21T11:56:26.786Z,3.27
2018-05-21T11:58:55.098Z,3.67
2018-05-21T12:01:22.646Z,3.73
2018-05-21T12:03:50.190Z,4.17
2018-05-21T12:06:17.729Z,3.57
2018-05-21T12:08:45.264Z,3.73
2018-05-21T12:11:12.786Z,3.80
2018-05-21T12:13:41.211Z,3.60
2018-05-21T12:16:09.520Z,4.30
2018-05-21T12:18:37.081Z,3.50
2018-05-21T12:21:04.726Z,3.50
2018-05-21T12:23:32.250Z,3.83
2018-05-21T12:25:59.813Z,4.00
2018-05-21T12:28:27.352Z,3.57
2018-05-21T12:30:54.893Z,3.97
2018-05-21T12:33:22.441Z,4.00
2018-05-21T12:35:50.537Z,3.80
2018-05-21T12:38:18.068Z,3.50
2018-05-21T12:40:46.844Z,3.80
2018-05-21T12:43:14.490Z,3.27
2018-05-21T12:45:42.016Z,3.80
2018-05-21T12:48:09.545Z,3.53
2018-05-21T12:50:37.858Z,3.47
2018-05-21T12:53:05.410Z,3.50
2018-05-21T12:55:32.984Z,3.43
2018-05-21T12:58:01.441Z,3.47
2018-05-21T13:00:28.978Z,3.80
2018-05-21T13:02:56.519Z,3.53
2018-05-21T13:05:24.060Z,3.17
2018-05-21T13:07:51.638Z,3.37
2018-05-21T13:10:19.181Z,3.27
2018-05-21T13:12:46.716Z,3.40
2018-05-21T13:15:15.096Z,2.93
2018-05-21T13:17:43.331Z,3.20
2018-05-21T13:20:11.624Z,3.10
2018-05-21T13:22:39.928Z,3.33
2018-05-21T13:25:08.246Z,3.20
2018-05-21T13:27:35.820Z,3.20
2018-05-21T13:30:04.144Z,3.10
2018-05-21T13:32:31.692Z,3.40
2018-05-21T13:34:59.997Z,3.70
2018-05-21T13:37:28.294Z,3.20
2018-05-21T13:39:55.831Z,3.13
2018-05-21T13:42:23.355Z,2.93
2018-05-21T13:44:50.898Z,3.17
2018-05-21T13:47:19.198Z,3.00
2018-05-21T13:49:46.730Z,3.30
2018-05-21T13:52:14.327Z,2.90
2018-05-21T13:54:41.784Z,2.50
2018-05-21T13:57:09.314Z,3.07
2018-05-21T13:59:36.856Z,3.20
2018-05-21T14:02:04.436Z,2.87
2018-05-21T14:04:32.024Z,2.90
2018-05-21T14:06:59.564Z,3.00
2018-05-21T14:09:27.109Z,2.93
2018-05-21T14:11:55.393Z,3.10
2018-05-21T14:14:22.959Z,3.00
2018-05-21T14:16:50.503Z,2.80
2018-05-21T14:19:18.045Z,3.03
2018-05-21T14:21:45.578Z,3.27
2018-05-21T14:24:13.110Z,3.10
2018-05-21T14:26:40.644Z,2.70
2018-05-21T14:29:08.178Z,3.10
2018-05-21T14:31:35.711Z,3.50
2018-05-21T14:34:03.309Z,3.20
2018-05-21T14:36:30.853Z,2.90
2018-05-21T14:38:59.149Z,3.03
2018-05-21T14:41:26.685Z,2.80
2018-05-21T14:43:54.238Z,2.67
2018-05-21T14:46:21.813Z,3.00
2018-05-21T14:48:50.117Z,2.90
2018-05-21T14:51:18.411Z,3.20
2018-05-21T14:53:46.729Z,3.20
2018-05-21T14:56:15.030Z,2.90
2018-05-21T14:58:43.727Z,3.40
2018-05-21T15:01:11.256Z,3.00
2018-05-21T15:03:38.802Z,3.10
2018-05-21T15:06:07.136Z,2.80
2018-05-21T15:08:34.676Z,3.20
2018-05-21T15:11:02.249Z,3.17
2018-05-21T15:13:29.771Z,3.20
2018-05-21T15:15:57.322Z,2.93
2018-05-21T15:18:24.848Z,2.70
2018-05-21T15:20:52.401Z,2.70
2018-05-21T15:23:19.922Z,2.90
2018-05-21T15:25:47.461Z,2.67
2018-05-21T15:28:14.990Z,3.37
2018-05-21T15:30:42.531Z,3.10
2018-05-21T15:33:10.073Z,2.73
2018-05-21T15:35:37.693Z,2.90
2018-05-21T15:38:05.247Z,3.30
2018-05-21T15:40:32.801Z,3.03
2018-05-21T15:43:00.352Z,2.90
2018-05-21T15:45:28.656Z,3.07
2018-05-21T15:47:56.951Z,3.10
2018-05-21T15:50:25.257Z,3.30
2018-05-21T15:52:52.821Z,3.10
2018-05-21T15:55:20.362Z,3.17
2018-05-21T15:57:47.898Z,3.10
2018-05-21T16:00:15.449Z,3.20
2018-05-21T16:02:42.972Z,3.30
2018-05-21T16:05:10.508Z,3.57
2018-05-21T16:07:38.053Z,3.03
2018-05-21T16:10:06.376Z,3.20
2018-05-21T16:12:35.150Z,3.30
2018-05-21T16:15:02.797Z,3.20
2018-05-21T16:17:30.355Z,3.50
2018-05-21T16:19:57.887Z,3.27
2018-05-21T16:22:25.432Z,3.13
2018-05-21T16:24:52.957Z,3.27
2018-05-21T16:27:20.490Z,3.70
2018-05-21T16:29:48.034Z,4.03
2018-05-21T16:32:15.564Z,3.80
2018-05-21T16:34:43.098Z,3.83
2018-05-21T16:37:10.625Z,3.80
2018-05-21T16:39:38.166Z,3.90
2018-05-21T16:42:05.695Z,3.80
2018-05-21T16:44:33.264Z,4.30
2018-05-21T16:47:01.811Z,4.00
2018-05-21T16:49:29.349Z,4.03
2018-05-21T16:51:57.660Z,3.70
2018-05-21T16:54:25.967Z,3.77
2018-05-21T16:56:53.515Z,4.03
2018-05-21T16:59:21.101Z,3.63
2018-05-21T17:01:48.644Z,3.47
2018-05-21T17:04:16.159Z,3.43
2018-05-21T17:06:43.713Z,3.40
2018-05-21T17:09:11.238Z,3.73
2018-05-21T17:11:38.783Z,3.53
2018-05-21T17:14:06.330Z,3.97
2018-05-21T17:16:34.660Z,3.17
2018-05-21T17:19:02.496Z,3.53
2018-05-21T17:21:30.032Z,3.83
2018-05-21T17:23:57.566Z,3.50
2018-05-21T17:26:25.106Z,3.87
2018-05-21T17:28:52.657Z,3.90
2018-05-21T17:31:20.219Z,3.77
2018-05-21T17:33:47.762Z,3.77
2018-05-21T17:36:15.314Z,3.80
2018-05-21T17:38:42.835Z,3.87
2018-05-21T17:41:10.390Z,4.17
2018-05-21T17:43:37.966Z,4.07
2018-05-21T17:46:06.278Z,3.83
2018-05-21T17:48:33.865Z,3.57
2018-05-21T17:51:01.429Z,3.60
2018-05-21T17:53:28.973Z,3.90
2018-05-21T17:55:56.584Z,3.37
2018-05-21T17:58:24.045Z,4.13
2018-05-21T18:00:51.612Z,3.77
2018-05-21T18:03:19.205Z,3.87
2018-05-21T18:05:47.468Z,4.10
2018-05-21T18:08:15.817Z,4.03
2018-05-21T18:10:44.077Z,3.83
2018-05-21T18:13:11.658Z,4.17
2018-05-21T18:15:39.957Z,3.90
2018-05-21T18:18:08.825Z,3.90
2018-05-21T18:20:36.505Z,4.27
2018-05-21T18:23:04.098Z,3.97
2018-05-21T18:25:31.753Z,3.90
2018-05-21T18:27:59.288Z,4.03
2018-05-21T18:30:26.842Z,4.27
2018-05-21T18:32:54.369Z,4.07
2018-05-21T18:35:22.697Z,3.77
2018-05-21T18:37:50.250Z,3.73
2018-05-21T18:40:17.791Z,3.80
2018-05-21T18:42:45.322Z,3.93
2018-05-21T18:45:12.866Z,4.00
2018-05-21T18:47:40.532Z,4.10
2018-05-21T18:50:08.101Z,4.13
2018-05-21T18:52:35.638Z,4.17
2018-05-21T18:55:03.192Z,3.90
2018-05-21T18:57:30.742Z,3.70
2018-05-21T18:59:58.277Z,4.60
2018-05-21T19:02:25.821Z,3.97
2018-05-21T19:04:53.357Z,4.10
2018-05-21T19:07:20.922Z,3.80
2018-05-21T19:09:48.445Z,3.83
2018-05-21T19:12:16.749Z,4.47
2018-05-21T19:14:45.049Z,4.47
2018-05-21T19:17:13.345Z,4.00
2018-05-21T19:19:40.893Z,4.20
2018-05-21T19:22:08.442Z,4.50
2018-05-21T19:24:35.974Z,4.07
2018-05-21T19:27:03.540Z,4.03
2018-05-21T19:29:31.060Z,4.37
2018-05-21T19:31:58.594Z,5.03
2018-05-21T19:34:26.124Z,4.50
2018-05-21T19:36:53.657Z,4.47
2018-05-21T19:39:21.212Z,4.67
2018-05-21T19:41:49.517Z,4.50
2018-05-21T19:44:17.816Z,4.37
2018-05-21T19:46:46.116Z,4.70
2018-05-21T19:49:14.418Z,4.70
2018-05-21T19:51:42.726Z,4.27
2018-05-21T19:54:11.025Z,4.67
2018-05-21T19:56:39.341Z,4.47
2018-05-21T19:59:06.881Z,5.00
2018-05-21T20:01:34.425Z,4.97
2018-05-21T20:04:02.023Z,5.00
2018-05-21T20:06:29.556Z,5.33
2018-05-21T20:08:57.882Z,5.50
2018-05-21T20:11:25.413Z,4.97
2018-05-21T20:13:52.964Z,5.30
2018-05-21T20:16:20.533Z,5.53
2018-05-21T20:18:48.068Z,4.97
2018-05-21T20:21:15.628Z,5.07
2018-05-21T20:23:43.175Z,4.83
2018-05-21T20:26:11.489Z,5.40
2018-05-21T20:28:39.026Z,5.40
2018-05-21T20:31:06.573Z,5.40
2018-05-21T20:33:35.017Z,5.40
2018-05-21T20:36:02.585Z,5.43
2018-05-21T20:38:30.115Z,5.77
2018-05-21T20:40:57.655Z,5.40
2018-05-21T20:43:25.185Z,5.60
2018-05-21T20:45:52.728Z,5.53
2018-05-21T20:48:20.306Z,5.80
2018-05-21T20:50:47.832Z,5.40
2018-05-21T20:53:16.143Z,5.50
2018-05-21T20:55:43.677Z,6.10
2018-05-21T20:58:11.221Z,5.97
2018-05-21T21:00:38.762Z,5.83
2018-05-21T21:03:06.312Z,6.00
2018-05-21T21:05:33.867Z,5.57
2018-05-21T21:08:01.415Z,5.90
2018-05-21T21:10:28.954Z,5.70
2018-05-21T21:12:56.488Z,6.03
2018-05-21T21:15:24.034Z,6.93
2018-05-21T21:17:51.597Z,6.03
2018-05-21T21:20:19.150Z,6.40
2018-05-21T21:22:47.440Z,6.50
2018-05-21T21:25:14.974Z,5.93
2018-05-21T21:27:42.503Z,6.20
2018-05-21T21:30:10.059Z,6.10
2018-05-21T21:32:37.643Z,6.50
2018-05-21T21:35:05.910Z,6.10
2018-05-21T21:37:33.479Z,5.97
2018-05-21T21:40:01.827Z,6.10
2018-05-21T21:42:29.370Z,5.90
2018-05-21T21:44:56.904Z,6.70
2018-05-21T21:47:24.430Z,6.13
2018-05-21T21:49:52.757Z,6.80
2018-05-21T21:52:20.313Z,6.60
2018-05-21T21:54:48.611Z,6.00
2018-05-21T21:57:16.923Z,6.50
2018-05-21T21:59:45.222Z,6.10
2018-05-21T22:02:13.536Z,6.30
2018-05-21T22:04:41.850Z,6.30
2018-05-21T22:07:09.379Z,6.80
2018-05-21T22:09:36.925Z,6.60
2018-05-21T22:12:04.501Z,6.50
2018-05-21T22:14:32.085Z,6.77
2018-05-21T22:16:59.637Z,6.53
2018-05-21T22:19:27.159Z,5.70
2018-05-21T22:21:54.701Z,6.40
2018-05-21T22:24:22.251Z,6.37
2018-05-21T22:26:49.782Z,7.77
2018-05-21T22:29:18.076Z,7.97
2018-05-21T22:31:46.401Z,7.40
2018-05-21T22:34:14.694Z,7.77
2018-05-21T22:36:43.727Z,7.60
2018-05-21T22:39:12.109Z,7.73
2018-05-21T22:41:40.436Z,7.53
2018-05-21T22:44:08.052Z,8.37
2018-05-21T22:46:35.573Z,9.10
2018-05-21T22:49:03.116Z,8.40
2018-05-21T22:51:30.663Z,8.47
2018-05-21T22:53:58.270Z,8.30
2018-05-21T22:56:25.738Z,8.67
2018-05-21T22:58:53.272Z,8.30
2018-05-21T23:01:20.829Z,8.20
2018-05-21T23:03:48.359Z,8.23
2018-05-21T23:06:15.887Z,8.00
2018-05-21T23:08:43.429Z,8.03
2018-05-21T23:11:11.733Z,7.60
2018-05-21T23:13:39.273Z,7.37
2018-05-21T23:16:06.820Z,7.57
2018-05-21T23:18:34.372Z,6.40
2018-05-21T23:21:01.985Z,7.10
2018-05-21T23:23:29.539Z,8.10
2018-05-21T23:25:57.075Z,8.10
2018-05-21T23:28:24.612Z,7.70
2018-05-21T23:30:52.161Z,8.03
2018-05-21T23:33:19.697Z,8.87
2018-05-21T23:35:47.992Z,7.97
2018-05-21T23:38:16.295Z,8.30
2018-05-21T23:40:43.817Z,7.57
2018-05-21T23:43:11.363Z,8.57
2018-05-21T23:45:39.649Z,7.87
2018-05-21T23:48:07.203Z,8.63
2018-05-21T23:50:34.756Z,8.83
2018-05-21T23:53:02.330Z,8.23
2018-05-21T23:55:30.631Z,8.30
2018-05-21T23:57:58.160Z,7.87
